Brian Head, Utah
Current Conditions -  °F | °C
As of 3:53 PM on Thursday 20 Nov 2014 (Local Time) from KCDC Reporting Station
Clear Clear  
Wind Chill: 52°   Ceiling: Unl
Heat Index: 52°   Visibility: 10mi
Dew Point: 17°   Wind: 10mph
Humidity: 25%   Direction: 210°SSW
Pressure: 30.02"   Gusts: NA
Location:  37.69°N, 112.85°W
Report Text: KCDC 202253Z AUTO 21009KT 10SM CLR 11/M08 A3002 RMK AO2 SLP142 T01111083
Loading
Personal Weather Stations






























Interactive Weather Map New forecast layout! Learn more

10-Day Weather Forecast

Advertisements
Track Severe Weather on mobile